createdAt,value
2022-07-28T00:00:48.694Z,82.1
2022-07-28T00:01:49.297Z,82.7
2022-07-28T00:02:49.901Z,82.5
2022-07-28T00:03:50.467Z,82.7
2022-07-28T00:04:51.060Z,82.9
2022-07-28T00:05:51.653Z,82.0
2022-07-28T00:06:52.248Z,82.2
2022-07-28T00:07:52.843Z,82.2
2022-07-28T00:08:53.438Z,82.1
2022-07-28T00:09:59.846Z,82.3
2022-07-28T00:10:55.620Z,82.2
2022-07-28T00:11:56.215Z,82.1
2022-07-28T00:12:56.810Z,82.3
2022-07-28T00:13:57.403Z,82.2
2022-07-28T00:14:58.000Z,82.0
2022-07-28T00:15:58.623Z,82.0
2022-07-28T00:16:59.227Z,82.0
2022-07-28T00:17:59.820Z,82.3
2022-07-28T00:19:00.414Z,82.3
2022-07-28T00:20:01.010Z,81.7
2022-07-28T00:21:01.608Z,82.0
2022-07-28T00:22:02.201Z,82.1
2022-07-28T00:23:02.797Z,81.7
2022-07-28T00:24:03.390Z,82.1
2022-07-28T00:25:03.985Z,82.3
2022-07-28T00:26:04.580Z,82.4
2022-07-28T00:27:05.178Z,82.2
2022-07-28T00:28:05.796Z,82.1
2022-07-28T00:29:06.385Z,82.0
2022-07-28T00:30:06.985Z,82.0
2022-07-28T00:31:11.183Z,81.9
2022-07-28T00:32:09.252Z,82.2
2022-07-28T00:33:10.155Z,82.1
2022-07-28T00:34:11.044Z,82.0
2022-07-28T00:35:11.756Z,82.1
2022-07-28T00:36:12.717Z,82.3
2022-07-28T00:37:14.976Z,82.5
2022-07-28T00:38:14.108Z,82.6
2022-07-28T00:39:14.703Z,84.0
2022-07-28T00:40:15.299Z,83.9
2022-07-28T00:41:15.891Z,83.5
2022-07-28T00:42:16.487Z,83.4
2022-07-28T00:43:17.102Z,83.9
2022-07-28T00:44:17.697Z,84.2
2022-07-28T00:45:18.291Z,84.6
2022-07-28T00:46:19.008Z,84.5
2022-07-28T00:47:19.494Z,85.4
2022-07-28T00:48:20.089Z,84.3
2022-07-28T00:49:20.729Z,86.1
2022-07-28T00:50:21.282Z,86.4
2022-07-28T00:51:21.868Z,86.5
2022-07-28T00:52:22.462Z,87.1
2022-07-28T00:53:23.058Z,87.1
2022-07-28T00:54:23.712Z,87.9
2022-07-28T00:55:24.778Z,87.6
2022-07-28T00:56:25.405Z,87.8
2022-07-28T00:57:25.988Z,88.0
2022-07-28T00:58:26.581Z,88.2
2022-07-28T00:59:27.178Z,88.1
2022-07-28T01:00:27.769Z,88.1
2022-07-28T01:01:28.427Z,88.5
2022-07-28T01:02:29.155Z,88.2
2022-07-28T01:03:29.768Z,88.3
2022-07-28T01:04:30.362Z,89.2
2022-07-28T01:05:43.863Z,88.7
2022-07-28T01:06:32.565Z,89.0
2022-07-28T01:07:33.163Z,89.4
2022-07-28T01:08:33.768Z,90.3
2022-07-28T01:09:34.354Z,90.2
2022-07-28T01:10:34.967Z,89.2
2022-07-28T01:11:42.954Z,90.1
2022-07-28T01:12:37.151Z,90.5
2022-07-28T01:13:37.748Z,90.6
2022-07-28T01:14:38.339Z,90.9
2022-07-28T01:15:38.994Z,90.5
2022-07-28T01:16:39.586Z,89.8
2022-07-28T01:17:40.184Z,89.4
2022-07-28T01:18:40.776Z,90.3
2022-07-28T01:19:41.372Z,89.7
2022-07-28T01:20:41.965Z,89.3
2022-07-28T01:21:42.561Z,89.4
2022-07-28T01:22:43.158Z,88.9
2022-07-28T01:23:43.751Z,89.2
2022-07-28T01:24:44.456Z,89.3
2022-07-28T01:25:48.606Z,89.0
2022-07-28T01:26:46.636Z,88.7
2022-07-28T01:27:47.232Z,88.8
2022-07-28T01:28:47.829Z,88.9
2022-07-28T01:29:48.423Z,88.7
2022-07-28T01:30:49.040Z,89.2
2022-07-28T01:31:49.617Z,88.8
2022-07-28T01:32:50.207Z,88.7
2022-07-28T01:33:50.806Z,88.8
2022-07-28T01:34:51.399Z,88.9
2022-07-28T01:35:51.995Z,88.7
2022-07-28T01:36:52.593Z,88.2
2022-07-28T01:37:53.206Z,88.4
2022-07-28T01:38:53.798Z,88.3
2022-07-28T01:39:54.395Z,88.1
2022-07-28T01:40:54.993Z,87.7
2022-07-28T01:41:55.605Z,87.7
2022-07-28T01:42:56.198Z,87.4
2022-07-28T01:43:56.793Z,87.2
2022-07-28T01:44:57.387Z,87.2
2022-07-28T01:45:58.096Z,86.8
2022-07-28T01:46:58.661Z,86.0
2022-07-28T01:47:59.258Z,85.8
2022-07-28T01:48:59.912Z,84.9
2022-07-28T01:50:00.470Z,85.8
2022-07-28T01:51:01.065Z,86.3
2022-07-28T01:52:01.663Z,87.9
2022-07-28T01:53:02.254Z,88.3
2022-07-28T01:54:02.851Z,89.4
2022-07-28T01:55:03.446Z,89.4
2022-07-28T01:56:04.046Z,90.0
2022-07-28T01:57:04.637Z,91.1
2022-07-28T01:58:05.232Z,90.7
2022-07-28T01:59:05.840Z,91.7
2022-07-28T02:00:06.423Z,90.7
2022-07-28T02:01:07.093Z,92.1
2022-07-28T02:02:07.763Z,92.0
2022-07-28T02:03:08.372Z,92.0
2022-07-28T02:04:08.969Z,92.1
2022-07-28T02:05:09.622Z,92.9
2022-07-28T02:06:10.202Z,93.6
2022-07-28T02:07:10.794Z,94.4
2022-07-28T02:08:11.390Z,94.8
2022-07-28T02:09:11.985Z,95.4
2022-07-28T02:10:12.580Z,96.0
2022-07-28T02:11:13.174Z,96.3
2022-07-28T02:12:13.772Z,96.5
2022-07-28T02:13:14.363Z,96.5
2022-07-28T02:14:15.419Z,97.1
2022-07-28T02:15:16.162Z,97.0
2022-07-28T02:16:16.809Z,96.8
2022-07-28T02:17:17.391Z,96.5
2022-07-28T02:18:17.989Z,96.2
2022-07-28T02:19:18.584Z,96.1
2022-07-28T02:20:19.174Z,96.1
2022-07-28T02:21:19.765Z,96.3
2022-07-28T02:22:20.361Z,96.0
2022-07-28T02:23:20.953Z,96.6
2022-07-28T02:24:21.547Z,97.0
2022-07-28T02:25:22.151Z,96.6
2022-07-28T02:26:22.737Z,96.6
2022-07-28T02:27:23.331Z,96.9
2022-07-28T02:28:23.925Z,96.9
2022-07-28T02:29:49.696Z,96.8
2022-07-28T02:30:27.097Z,97.0
2022-07-28T02:31:27.761Z,96.9
2022-07-28T02:32:28.723Z,96.8
2022-07-28T02:33:59.971Z,96.9
2022-07-28T02:34:30.944Z,97.0
2022-07-28T02:35:32.118Z,97.2
2022-07-28T02:36:33.202Z,97.1
2022-07-28T02:37:33.795Z,96.6
2022-07-28T02:38:34.389Z,96.1
2022-07-28T02:39:34.986Z,95.4
2022-07-28T02:40:35.577Z,94.9
2022-07-28T02:41:36.182Z,94.7
2022-07-28T02:42:36.848Z,94.9
2022-07-28T02:43:49.319Z,95.0
2022-07-28T02:44:39.022Z,94.8
2022-07-28T02:45:39.617Z,95.0
2022-07-28T02:46:40.254Z,95.3
2022-07-28T02:47:40.820Z,94.9
2022-07-28T02:48:41.467Z,95.7
2022-07-28T02:49:42.023Z,95.4
2022-07-28T02:50:42.626Z,95.2
2022-07-28T02:51:43.236Z,95.2
2022-07-28T02:52:43.847Z,95.8
2022-07-28T02:53:44.442Z,96.1
2022-07-28T02:54:45.035Z,96.5
2022-07-28T02:55:45.632Z,96.7
2022-07-28T02:56:53.893Z,96.4
2022-07-28T02:57:47.834Z,96.1
2022-07-28T02:58:48.423Z,95.2
2022-07-28T02:59:49.021Z,95.4
2022-07-28T03:00:49.636Z,95.2
2022-07-28T03:01:50.297Z,95.4
2022-07-28T03:02:50.838Z,95.8
2022-07-28T03:03:51.434Z,95.7
2022-07-28T03:04:53.083Z,95.5
2022-07-28T03:05:53.650Z,96.2
2022-07-28T03:06:54.265Z,96.2
2022-07-28T03:07:54.879Z,96.2
2022-07-28T03:08:55.475Z,96.2
2022-07-28T03:09:56.070Z,96.4
2022-07-28T03:10:56.665Z,96.6
2022-07-28T03:11:57.259Z,96.4
2022-07-28T03:12:57.855Z,96.6
2022-07-28T03:13:58.451Z,97.0
2022-07-28T03:15:00.039Z,96.9
2022-07-28T03:16:00.635Z,96.4
2022-07-28T03:17:01.264Z,95.9
2022-07-28T03:18:01.829Z,96.5
2022-07-28T03:19:02.442Z,96.5
2022-07-28T03:20:03.063Z,96.2
2022-07-28T03:21:03.653Z,96.1
2022-07-28T03:22:04.250Z,95.3
2022-07-28T03:23:04.842Z,95.2
2022-07-28T03:24:05.440Z,95.5
2022-07-28T03:25:06.036Z,95.4
2022-07-28T03:26:06.905Z,94.8
2022-07-28T03:27:07.498Z,94.8
2022-07-28T03:28:08.117Z,94.7
2022-07-28T03:29:08.752Z,95.1
2022-07-28T03:30:09.353Z,94.6
2022-07-28T03:31:10.032Z,94.8
2022-07-28T03:32:10.631Z,94.7
2022-07-28T03:33:11.230Z,94.1
2022-07-28T03:34:12.292Z,94.0
2022-07-28T03:35:12.961Z,93.9
2022-07-28T03:36:13.558Z,94.0
2022-07-28T03:37:14.155Z,94.0
2022-07-28T03:38:14.756Z,94.1
2022-07-28T03:39:16.348Z,94.1
2022-07-28T03:40:16.946Z,94.3
2022-07-28T03:41:17.541Z,94.1
2022-07-28T03:42:18.140Z,94.3
2022-07-28T03:43:18.742Z,94.2
2022-07-28T03:44:27.667Z,94.0
2022-07-28T03:45:20.927Z,93.7
2022-07-28T03:46:21.599Z,93.3
2022-07-28T03:47:22.203Z,92.9
2022-07-28T03:48:22.802Z,92.6
2022-07-28T03:49:23.559Z,92.5
2022-07-28T03:50:24.167Z,92.3
2022-07-28T03:51:24.760Z,92.5
2022-07-28T03:52:26.025Z,92.7
2022-07-28T03:53:26.633Z,92.7
2022-07-28T03:54:27.232Z,92.8
2022-07-28T03:55:27.832Z,92.5
2022-07-28T03:56:28.434Z,92.9
2022-07-28T03:57:29.034Z,93.0
2022-07-28T03:58:29.639Z,92.9
2022-07-28T03:59:30.235Z,92.9
2022-07-28T04:00:30.830Z,93.2
2022-07-28T04:01:31.472Z,93.5
2022-07-28T04:02:32.074Z,93.7
2022-07-28T04:03:42.637Z,94.1
2022-07-28T04:04:34.251Z,94.4
2022-07-28T04:05:34.847Z,94.4
2022-07-28T04:06:35.446Z,94.8
2022-07-28T04:07:36.044Z,95.4
2022-07-28T04:08:36.651Z,95.6
2022-07-28T04:09:37.243Z,95.5
2022-07-28T04:10:37.850Z,95.4
2022-07-28T04:11:38.445Z,95.0
2022-07-28T04:12:39.057Z,94.8
2022-07-28T04:13:39.655Z,94.4
2022-07-28T04:14:40.252Z,94.7
2022-07-28T04:15:40.851Z,94.5
2022-07-28T04:16:41.534Z,95.0
2022-07-28T04:17:42.079Z,95.1
2022-07-28T04:18:42.680Z,94.9
2022-07-28T04:19:43.277Z,94.6
2022-07-28T04:20:43.876Z,95.2
2022-07-28T04:21:44.480Z,95.0
2022-07-28T04:22:45.075Z,95.0
2022-07-28T04:23:45.673Z,95.1
2022-07-28T04:24:46.274Z,94.5
2022-07-28T04:25:46.875Z,94.4
2022-07-28T04:26:47.475Z,94.4
2022-07-28T04:27:48.074Z,94.1
2022-07-28T04:28:48.675Z,93.7
2022-07-28T04:29:49.273Z,93.3
2022-07-28T04:30:49.975Z,93.1
2022-07-28T04:31:50.509Z,93.1
2022-07-28T04:32:51.112Z,92.7
2022-07-28T04:33:51.733Z,92.5
2022-07-28T04:34:52.330Z,92.1
2022-07-28T04:35:52.975Z,91.4
2022-07-28T04:36:53.532Z,92.3
2022-07-28T04:37:54.134Z,91.5
2022-07-28T04:38:54.733Z,91.5
2022-07-28T04:39:55.335Z,91.1
2022-07-28T04:40:55.949Z,91.5
2022-07-28T04:41:56.550Z,90.6
2022-07-28T04:42:57.151Z,91.5
2022-07-28T04:43:57.753Z,90.3
2022-07-28T04:44:58.351Z,90.9
2022-07-28T04:45:58.979Z,90.2
2022-07-28T04:46:59.556Z,90.0
2022-07-28T04:48:00.175Z,89.2
2022-07-28T04:49:00.868Z,90.0
2022-07-28T04:50:01.447Z,90.8
2022-07-28T04:51:02.034Z,90.8
2022-07-28T04:52:02.632Z,92.1
2022-07-28T04:53:03.239Z,91.7
2022-07-28T04:54:03.832Z,91.9
2022-07-28T04:55:04.434Z,91.7
2022-07-28T04:56:05.038Z,92.2
2022-07-28T04:57:06.283Z,92.1
2022-07-28T04:58:07.235Z,92.5
2022-07-28T04:59:08.824Z,92.8
2022-07-28T05:00:10.416Z,93.5
2022-07-28T05:01:11.415Z,93.9
2022-07-28T05:02:11.976Z,93.9
2022-07-28T05:03:12.576Z,94.8
2022-07-28T05:04:13.436Z,94.9
2022-07-28T05:05:14.265Z,95.0
2022-07-28T05:06:14.844Z,95.4
2022-07-28T05:07:15.447Z,95.4
2022-07-28T05:08:16.047Z,95.3
2022-07-28T05:09:16.645Z,95.5
2022-07-28T05:10:17.247Z,95.7
2022-07-28T05:11:17.846Z,95.1
2022-07-28T05:12:18.447Z,94.2
2022-07-28T05:13:19.046Z,93.0
2022-07-28T05:14:19.648Z,92.0
2022-07-28T05:15:20.250Z,89.9
2022-07-28T05:16:20.872Z,89.6
2022-07-28T05:17:21.469Z,89.9
2022-07-28T05:18:22.057Z,88.8
2022-07-28T05:19:22.679Z,89.2
2022-07-28T05:20:23.280Z,89.7
2022-07-28T05:21:23.880Z,90.0
2022-07-28T05:22:24.482Z,89.7
2022-07-28T05:23:25.090Z,89.9
2022-07-28T05:24:25.686Z,90.1
2022-07-28T05:25:26.286Z,89.2
2022-07-28T05:26:26.889Z,89.4
2022-07-28T05:27:27.485Z,89.2
2022-07-28T05:28:28.088Z,88.7
2022-07-28T05:29:42.464Z,88.4
2022-07-28T05:30:30.278Z,87.7
2022-07-28T05:31:30.935Z,87.3
2022-07-28T05:32:31.481Z,86.8
2022-07-28T05:33:32.236Z,85.3
2022-07-28T05:34:32.769Z,79.6
2022-07-28T05:35:33.392Z,73.9
2022-07-28T05:36:33.991Z,70.8
2022-07-28T05:37:34.592Z,65.9
2022-07-28T05:38:35.219Z,63.5
2022-07-28T05:39:35.811Z,64.0
2022-07-28T05:40:36.412Z,63.0
2022-07-28T05:41:37.012Z,63.2
2022-07-28T05:42:37.611Z,63.2
2022-07-28T05:43:38.234Z,62.4
2022-07-28T05:44:38.855Z,59.7
2022-07-28T05:45:39.488Z,61.0
2022-07-28T05:46:40.054Z,60.5
2022-07-28T05:47:40.655Z,58.9
2022-07-28T05:48:41.299Z,57.0
2022-07-28T05:49:41.887Z,59.9
2022-07-28T05:50:42.477Z,60.9
2022-07-28T05:51:43.078Z,61.7
2022-07-28T05:52:43.680Z,61.6
2022-07-28T05:53:44.277Z,59.6
2022-07-28T05:54:44.876Z,58.5
2022-07-28T05:56:00.937Z,57.6
2022-07-28T05:56:50.122Z,57.9
2022-07-28T05:57:48.664Z,58.0
2022-07-28T05:58:49.262Z,55.7
2022-07-28T05:59:49.884Z,57.0
2022-07-28T06:00:50.504Z,56.0
2022-07-28T06:01:51.110Z,57.1
2022-07-28T06:02:51.681Z,57.0
2022-07-28T06:04:09.986Z,54.2
2022-07-28T06:04:53.873Z,52.3
2022-07-28T06:05:59.474Z,50.4
2022-07-28T06:06:56.084Z,50.3
2022-07-28T06:07:56.670Z,51.7
2022-07-28T06:08:57.292Z,53.5
2022-07-28T06:09:57.911Z,53.5
2022-07-28T06:10:58.511Z,52.4
2022-07-28T06:11:59.112Z,51.9
2022-07-28T06:12:59.713Z,53.7
2022-07-28T06:14:00.314Z,54.0
2022-07-28T06:15:00.917Z,52.4
2022-07-28T06:16:01.559Z,50.5
2022-07-28T06:17:02.221Z,49.2
2022-07-28T06:18:02.782Z,50.2
2022-07-28T06:19:03.383Z,48.7
2022-07-28T06:20:03.987Z,48.3
2022-07-28T06:21:04.585Z,47.0
2022-07-28T06:22:05.187Z,48.9
2022-07-28T06:23:05.811Z,49.3
2022-07-28T06:24:06.427Z,50.4
2022-07-28T06:25:07.028Z,49.4
2022-07-28T06:26:07.634Z,50.2
2022-07-28T06:27:08.230Z,49.7
2022-07-28T06:28:08.830Z,50.2
2022-07-28T06:29:09.431Z,48.4
2022-07-28T06:30:10.054Z,49.4
2022-07-28T06:31:10.704Z,48.1
2022-07-28T06:32:11.355Z,48.7
2022-07-28T06:33:16.859Z,49.3
2022-07-28T06:34:13.823Z,47.4
2022-07-28T06:35:14.504Z,45.9
2022-07-28T06:36:15.121Z,47.1
2022-07-28T06:37:15.709Z,45.6
2022-07-28T06:38:16.313Z,45.4
2022-07-28T06:39:16.934Z,44.2
2022-07-28T06:40:17.537Z,46.0
2022-07-28T06:41:18.142Z,45.7
2022-07-28T06:42:18.742Z,45.6
2022-07-28T06:43:19.342Z,45.4
2022-07-28T06:44:20.322Z,44.5
2022-07-28T06:45:21.839Z,48.1
2022-07-28T06:46:22.516Z,47.2
2022-07-28T06:47:23.101Z,48.0
2022-07-28T06:48:27.282Z,48.4
2022-07-28T06:49:25.337Z,47.1
2022-07-28T06:50:27.112Z,49.3
2022-07-28T06:51:27.495Z,48.4
2022-07-28T06:52:28.099Z,48.7
2022-07-28T06:53:33.608Z,49.7
2022-07-28T06:54:30.298Z,48.2
2022-07-28T06:55:35.342Z,46.8
2022-07-28T06:56:32.499Z,46.8
2022-07-28T06:57:33.660Z,46.9
2022-07-28T06:58:34.453Z,47.6
2022-07-28T06:59:35.027Z,47.2
2022-07-28T07:00:35.721Z,46.5
2022-07-28T07:01:36.386Z,46.8
2022-07-28T07:02:36.936Z,46.0
2022-07-28T07:03:37.539Z,45.2
2022-07-28T07:04:38.200Z,45.3
2022-07-28T07:05:38.793Z,43.8
2022-07-28T07:06:39.414Z,45.5
2022-07-28T07:07:43.393Z,45.8
2022-07-28T07:08:41.612Z,48.7
2022-07-28T07:09:42.214Z,48.5
2022-07-28T07:10:42.815Z,46.6
2022-07-28T07:11:43.420Z,46.1
2022-07-28T07:12:44.020Z,47.6
2022-07-28T07:13:44.628Z,48.2
2022-07-28T07:14:45.222Z,48.1
2022-07-28T07:15:45.867Z,49.0
2022-07-28T07:16:46.501Z,49.4
2022-07-28T07:17:47.071Z,51.0
2022-07-28T07:18:47.692Z,51.3
2022-07-28T07:19:48.296Z,50.5
2022-07-28T07:20:48.898Z,50.1
2022-07-28T07:21:49.501Z,50.4
2022-07-28T07:22:50.103Z,52.1
2022-07-28T07:23:50.728Z,52.6
2022-07-28T07:24:54.991Z,52.1
2022-07-28T07:25:52.952Z,52.6
2022-07-28T07:26:53.548Z,51.8
2022-07-28T07:27:54.150Z,53.1
2022-07-28T07:28:54.750Z,51.8
2022-07-28T07:29:55.353Z,51.9
2022-07-28T07:30:56.025Z,52.6
2022-07-28T07:31:56.655Z,52.7
2022-07-28T07:32:57.225Z,53.8
2022-07-28T07:33:57.828Z,54.6
2022-07-28T07:34:58.431Z,53.3
2022-07-28T07:35:59.037Z,53.1
2022-07-28T07:36:59.634Z,53.7
2022-07-28T07:38:00.237Z,54.6
2022-07-28T07:39:00.838Z,53.7
2022-07-28T07:40:01.464Z,54.3
2022-07-28T07:41:02.042Z,54.5
2022-07-28T07:42:02.657Z,55.8
2022-07-28T07:43:03.259Z,53.4
2022-07-28T07:44:03.856Z,53.9
2022-07-28T07:45:04.454Z,54.2
2022-07-28T07:46:05.078Z,54.3
2022-07-28T07:47:05.700Z,53.9
2022-07-28T07:48:06.272Z,53.0
2022-07-28T07:49:06.905Z,52.1
2022-07-28T07:50:08.152Z,52.8
2022-07-28T07:51:13.372Z,53.8
2022-07-28T07:52:09.368Z,54.8
2022-07-28T07:53:09.970Z,55.0
2022-07-28T07:54:10.615Z,55.2
2022-07-28T07:55:11.195Z,54.5
2022-07-28T07:56:11.798Z,55.7
2022-07-28T07:57:12.399Z,54.8
2022-07-28T07:58:13.002Z,52.9
2022-07-28T07:59:13.626Z,54.0
2022-07-28T08:00:29.032Z,52.7
2022-07-28T08:01:15.894Z,53.3
2022-07-28T08:02:16.501Z,52.2
2022-07-28T08:03:17.052Z,53.0
2022-07-28T08:04:19.171Z,54.5
2022-07-28T08:05:20.243Z,54.8
2022-07-28T08:06:26.578Z,54.4
2022-07-28T08:07:23.432Z,54.5
2022-07-28T08:08:24.220Z,54.4
2022-07-28T08:09:24.849Z,53.4
2022-07-28T08:10:25.434Z,54.4
2022-07-28T08:11:26.055Z,54.4
2022-07-28T08:12:26.660Z,51.9
2022-07-28T08:13:27.281Z,51.3
2022-07-28T08:14:27.912Z,52.0
2022-07-28T08:15:28.485Z,52.0
2022-07-28T08:16:29.148Z,51.5
2022-07-28T08:17:29.708Z,51.9
2022-07-28T08:18:30.312Z,52.2
2022-07-28T08:19:30.916Z,51.4
2022-07-28T08:20:31.519Z,50.9
2022-07-28T08:21:32.124Z,52.2
2022-07-28T08:22:32.725Z,50.9
2022-07-28T08:23:33.328Z,52.2
2022-07-28T08:24:34.512Z,49.6
2022-07-28T08:25:35.166Z,50.6
2022-07-28T08:26:35.768Z,50.6
2022-07-28T08:27:36.374Z,50.0
2022-07-28T08:28:36.976Z,50.8
2022-07-28T08:29:37.599Z,50.1
2022-07-28T08:30:38.202Z,49.8
2022-07-28T08:31:38.857Z,48.8
2022-07-28T08:32:39.453Z,48.6
2022-07-28T08:33:53.288Z,49.2
2022-07-28T08:34:41.675Z,49.3
2022-07-28T08:35:42.277Z,49.6
2022-07-28T08:36:42.882Z,49.9
2022-07-28T08:37:43.483Z,49.5
2022-07-28T08:38:44.087Z,48.4
2022-07-28T08:39:44.710Z,49.4
2022-07-28T08:40:45.312Z,48.8
2022-07-28T08:41:45.934Z,49.7
2022-07-28T08:42:46.556Z,49.0
2022-07-28T08:43:47.185Z,48.9
2022-07-28T08:44:47.786Z,49.8
2022-07-28T08:45:48.387Z,52.4
2022-07-28T08:46:49.092Z,51.0
2022-07-28T08:48:07.737Z,53.0
2022-07-28T08:48:51.417Z,53.2
2022-07-28T08:49:51.990Z,52.3
2022-07-28T08:50:52.593Z,52.5
2022-07-28T08:51:53.193Z,51.2
2022-07-28T08:52:53.799Z,49.5
2022-07-28T08:53:54.431Z,48.3
2022-07-28T08:54:55.020Z,49.3
2022-07-28T08:55:55.622Z,49.9
2022-07-28T08:56:56.226Z,49.5
2022-07-28T08:57:56.831Z,49.5
2022-07-28T08:58:58.428Z,49.6
2022-07-28T08:59:59.053Z,49.6
2022-07-28T09:00:59.656Z,49.5
2022-07-28T09:02:00.312Z,48.3
2022-07-28T09:03:00.926Z,49.0
2022-07-28T09:04:01.485Z,49.2
2022-07-28T09:05:02.101Z,48.2
2022-07-28T09:06:02.709Z,48.3
2022-07-28T09:07:03.317Z,45.9
2022-07-28T09:08:03.911Z,46.3
2022-07-28T09:09:04.512Z,47.2
2022-07-28T09:10:05.115Z,48.2
2022-07-28T09:11:05.718Z,48.0
2022-07-28T09:12:06.321Z,48.3
2022-07-28T09:13:06.926Z,46.8
2022-07-28T09:14:07.547Z,45.5
2022-07-28T09:15:08.142Z,46.4
2022-07-28T09:16:08.803Z,45.5
2022-07-28T09:17:09.368Z,45.9
2022-07-28T09:18:09.970Z,47.4
2022-07-28T09:19:10.572Z,48.2
2022-07-28T09:20:11.564Z,49.2
2022-07-28T09:21:12.259Z,49.6
2022-07-28T09:22:12.862Z,49.8
2022-07-28T09:23:42.216Z,49.9
2022-07-28T09:24:15.402Z,49.0
2022-07-28T09:25:16.191Z,51.3
2022-07-28T09:26:16.793Z,51.5
2022-07-28T09:27:17.395Z,51.9
2022-07-28T09:28:17.997Z,51.5
2022-07-28T09:29:18.617Z,51.7
2022-07-28T09:30:19.260Z,50.4
2022-07-28T09:31:19.862Z,49.6
2022-07-28T09:32:20.470Z,49.7
2022-07-28T09:33:42.529Z,49.5
2022-07-28T09:34:22.689Z,48.9
2022-07-28T09:35:23.293Z,48.1
2022-07-28T09:36:23.899Z,48.1
2022-07-28T09:37:27.445Z,48.1
2022-07-28T09:38:26.126Z,47.3
2022-07-28T09:39:26.742Z,48.7
2022-07-28T09:40:27.365Z,48.3
2022-07-28T09:41:27.970Z,47.4
2022-07-28T09:42:28.570Z,47.4
2022-07-28T09:43:29.176Z,46.1
2022-07-28T09:44:29.802Z,46.5
2022-07-28T09:45:30.452Z,46.6
2022-07-28T09:46:31.145Z,48.2
2022-07-28T09:47:31.810Z,46.9
2022-07-28T09:48:32.427Z,46.8
2022-07-28T09:49:33.176Z,49.2
2022-07-28T09:50:34.717Z,48.0
2022-07-28T09:51:35.320Z,46.3
2022-07-28T09:52:35.943Z,46.1
2022-07-28T09:53:36.566Z,45.8
2022-07-28T09:54:40.817Z,47.3
2022-07-28T09:55:37.794Z,48.1
2022-07-28T09:56:38.420Z,48.2
2022-07-28T09:57:39.023Z,48.2
2022-07-28T09:58:40.622Z,48.1
2022-07-28T09:59:41.237Z,48.2
2022-07-28T10:00:42.832Z,49.4
2022-07-28T10:01:43.469Z,48.7
2022-07-28T10:02:45.352Z,49.4
2022-07-28T10:03:45.647Z,48.7
2022-07-28T10:04:46.252Z,49.2
2022-07-28T10:05:49.514Z,48.8
2022-07-28T10:06:48.450Z,49.2
2022-07-28T10:07:49.097Z,49.4
2022-07-28T10:08:49.698Z,46.6
2022-07-28T10:09:50.303Z,46.4
2022-07-28T10:10:51.013Z,47.1
2022-07-28T10:11:51.619Z,45.6
2022-07-28T10:12:52.222Z,46.4
2022-07-28T10:13:52.827Z,48.7
2022-07-28T10:14:53.429Z,48.7
2022-07-28T10:15:54.053Z,48.2
2022-07-28T10:16:54.636Z,46.7
2022-07-28T10:17:55.241Z,46.4
2022-07-28T10:18:55.844Z,45.5
2022-07-28T10:19:56.450Z,45.6
2022-07-28T10:20:57.054Z,45.6
2022-07-28T10:21:57.677Z,45.8
2022-07-28T10:22:58.281Z,47.9
2022-07-28T10:23:58.886Z,47.3
2022-07-28T10:24:59.489Z,46.7
2022-07-28T10:26:00.094Z,45.9
2022-07-28T10:27:00.698Z,45.9
2022-07-28T10:28:01.302Z,45.8
2022-07-28T10:29:01.905Z,43.9
2022-07-28T10:30:02.514Z,44.1
2022-07-28T10:31:03.166Z,46.1
2022-07-28T10:32:03.758Z,45.2
2022-07-28T10:33:04.362Z,45.9
2022-07-28T10:34:04.966Z,45.9
2022-07-28T10:35:05.572Z,47.3
2022-07-28T10:36:06.174Z,47.4
2022-07-28T10:37:06.775Z,46.1
2022-07-28T10:38:07.383Z,46.6
2022-07-28T10:39:07.986Z,46.4
2022-07-28T10:40:10.595Z,47.7
2022-07-28T10:41:09.207Z,48.6
2022-07-28T10:42:09.825Z,48.4
2022-07-28T10:43:10.416Z,47.5
2022-07-28T10:44:11.105Z,46.7
2022-07-28T10:45:11.697Z,47.2
2022-07-28T10:46:16.379Z,45.6
2022-07-28T10:47:18.502Z,45.5
2022-07-28T10:48:15.497Z,45.7
2022-07-28T10:49:16.680Z,46.7
2022-07-28T10:50:18.212Z,45.7
2022-07-28T10:51:18.817Z,46.7
2022-07-28T10:52:45.950Z,46.2
2022-07-28T10:53:22.015Z,46.3
2022-07-28T10:54:24.922Z,46.9
2022-07-28T10:55:25.191Z,46.1
2022-07-28T10:56:26.788Z,46.5
2022-07-28T10:57:28.016Z,47.1
2022-07-28T10:58:29.615Z,46.9
2022-07-28T10:59:30.217Z,47.2
2022-07-28T11:00:46.693Z,47.2
2022-07-28T11:01:47.721Z,46.7
2022-07-28T11:02:33.151Z,45.4
2022-07-28T11:03:34.022Z,46.6
2022-07-28T11:04:34.647Z,46.0
2022-07-28T11:05:35.277Z,45.9
2022-07-28T11:06:35.881Z,45.8
2022-07-28T11:07:36.502Z,45.0
2022-07-28T11:08:37.106Z,45.8
2022-07-28T11:09:37.712Z,45.2
2022-07-28T11:10:38.313Z,45.7
2022-07-28T11:11:38.919Z,47.7
2022-07-28T11:12:39.522Z,47.5
2022-07-28T11:13:41.278Z,46.9
2022-07-28T11:14:41.728Z,45.1
2022-07-28T11:15:43.326Z,44.6
2022-07-28T11:16:43.981Z,44.5
2022-07-28T11:17:44.549Z,44.5
2022-07-28T11:18:45.579Z,45.5
2022-07-28T11:20:47.779Z,46.0
2022-07-28T11:21:52.757Z,46.0
2022-07-28T11:22:49.999Z,47.1
2022-07-28T11:23:50.589Z,45.8
2022-07-28T11:24:51.193Z,45.9
2022-07-28T11:25:51.800Z,45.6
2022-07-28T11:26:52.430Z,44.5
2022-07-28T11:27:53.032Z,45.0
2022-07-28T11:28:53.635Z,45.0
2022-07-28T11:29:54.552Z,45.1
2022-07-28T11:30:55.271Z,45.7
2022-07-28T11:31:55.915Z,44.2
2022-07-28T11:32:56.519Z,45.0
2022-07-28T11:33:57.148Z,45.4
2022-07-28T11:34:57.745Z,45.3
2022-07-28T11:35:58.349Z,45.9
2022-07-28T11:36:58.979Z,45.6
2022-07-28T11:37:59.581Z,45.2
2022-07-28T11:39:00.183Z,45.7
2022-07-28T11:40:00.788Z,45.8
2022-07-28T11:41:01.392Z,45.9
2022-07-28T11:42:01.995Z,46.0
2022-07-28T11:43:03.451Z,46.4
2022-07-28T11:44:04.054Z,45.9
2022-07-28T11:45:05.650Z,46.9
2022-07-28T11:46:11.163Z,45.4
2022-07-28T11:47:08.846Z,46.6
2022-07-28T11:48:09.469Z,46.7
2022-07-28T11:49:14.748Z,46.2
2022-07-28T11:50:10.697Z,45.1
2022-07-28T11:51:11.323Z,45.3
2022-07-28T11:52:11.948Z,45.1
2022-07-28T11:53:12.566Z,44.4
2022-07-28T11:54:13.406Z,45.9
2022-07-28T11:55:14.118Z,44.2
2022-07-28T11:56:14.722Z,43.8
2022-07-28T11:57:15.324Z,44.0
2022-07-28T11:58:15.934Z,44.8
2022-07-28T11:59:16.537Z,44.8
2022-07-28T12:00:17.143Z,45.7
2022-07-28T12:01:18.949Z,45.3
2022-07-28T12:02:19.434Z,44.2
2022-07-28T12:03:19.982Z,45.5
2022-07-28T12:04:21.583Z,45.1
2022-07-28T12:05:22.179Z,44.3
2022-07-28T12:06:27.190Z,44.7
2022-07-28T12:07:24.396Z,44.3
2022-07-28T12:08:25.320Z,44.2
2022-07-28T12:09:30.952Z,44.0
2022-07-28T12:10:54.635Z,44.4
2022-07-28T12:11:29.119Z,44.0
2022-07-28T12:12:29.724Z,44.4
2022-07-28T12:13:30.333Z,43.9
2022-07-28T12:14:32.308Z,45.4
2022-07-28T12:15:32.531Z,44.4
2022-07-28T12:16:33.306Z,43.7
2022-07-28T12:17:33.899Z,44.0
2022-07-28T12:18:34.524Z,44.0
2022-07-28T12:19:35.443Z,44.1
2022-07-28T12:20:36.159Z,43.9
2022-07-28T12:21:36.779Z,42.9
2022-07-28T12:22:37.387Z,42.7
2022-07-28T12:23:44.186Z,42.8
2022-07-28T12:24:44.666Z,43.7
2022-07-28T12:25:41.185Z,43.8
2022-07-28T12:26:41.794Z,44.0
2022-07-28T12:27:45.906Z,43.3
2022-07-28T12:28:44.453Z,44.0
2022-07-28T12:29:47.900Z,44.5
2022-07-28T12:30:46.896Z,44.9
2022-07-28T12:31:47.559Z,44.7
2022-07-28T12:32:48.164Z,44.5
2022-07-28T12:33:48.788Z,44.2
2022-07-28T12:34:49.393Z,45.4
2022-07-28T12:35:49.997Z,45.1
2022-07-28T12:36:50.601Z,44.0
2022-07-28T12:37:51.228Z,44.3
2022-07-28T12:38:51.832Z,45.6
2022-07-28T12:39:52.439Z,44.8
2022-07-28T12:40:53.061Z,44.3
2022-07-28T12:41:53.663Z,43.6
2022-07-28T12:42:54.266Z,43.0
2022-07-28T12:43:54.870Z,43.5
2022-07-28T12:44:55.477Z,43.3
2022-07-28T12:45:56.128Z,44.2
2022-07-28T12:46:56.701Z,43.3
2022-07-28T12:47:57.304Z,43.2
2022-07-28T12:48:58.060Z,43.6
2022-07-28T12:50:02.406Z,44.0
2022-07-28T12:50:59.281Z,44.3
2022-07-28T12:51:59.886Z,43.9
2022-07-28T12:53:00.488Z,42.5
2022-07-28T12:54:01.093Z,43.1
2022-07-28T12:55:01.701Z,44.2
2022-07-28T12:56:02.309Z,44.2
2022-07-28T12:57:02.908Z,44.0
2022-07-28T12:58:03.511Z,43.4
2022-07-28T12:59:04.114Z,43.1
2022-07-28T13:00:04.719Z,44.3
2022-07-28T13:01:05.397Z,43.3
2022-07-28T13:02:06.004Z,44.3
2022-07-28T13:03:06.572Z,43.7
2022-07-28T13:04:07.175Z,43.5
2022-07-28T13:05:07.778Z,42.6
2022-07-28T13:06:08.399Z,42.7
2022-07-28T13:07:09.002Z,43.9
2022-07-28T13:08:09.604Z,44.0
2022-07-28T13:09:15.154Z,43.9
2022-07-28T13:10:12.916Z,42.8
2022-07-28T13:11:41.873Z,43.7
2022-07-28T13:12:15.060Z,43.6
2022-07-28T13:13:15.666Z,41.4
2022-07-28T13:14:16.583Z,42.7
2022-07-28T13:15:17.250Z,43.1
2022-07-28T13:16:17.933Z,43.7
2022-07-28T13:17:18.502Z,43.4
2022-07-28T13:18:19.102Z,43.3
2022-07-28T13:19:19.710Z,43.1
2022-07-28T13:20:20.318Z,43.0
2022-07-28T13:21:20.940Z,44.6
2022-07-28T13:22:21.545Z,44.2
2022-07-28T13:23:22.147Z,42.9
2022-07-28T13:24:22.773Z,43.3
2022-07-28T13:25:23.379Z,42.8
2022-07-28T13:26:23.980Z,42.9
2022-07-28T13:27:24.589Z,43.4
2022-07-28T13:28:25.194Z,43.0
2022-07-28T13:29:25.804Z,42.9